createdAt,value
2018-12-05T00:02:25.371Z,15.00
2018-12-05T00:04:55.211Z,14.40
2018-12-05T00:07:25.302Z,11.47
2018-12-05T00:09:54.990Z,14.50
2018-12-05T00:12:24.817Z,12.33
2018-12-05T00:14:54.605Z,10.33
2018-12-05T00:17:24.401Z,12.57
2018-12-05T00:19:54.090Z,9.67
2018-12-05T00:22:23.847Z,10.83
2018-12-05T00:24:53.617Z,16.17
2018-12-05T00:27:23.530Z,10.93
2018-12-05T00:29:53.217Z,11.17
2018-12-05T00:32:23.108Z,11.50
2018-12-05T00:34:53.186Z,16.67
2018-12-05T00:37:23.082Z,12.47
2018-12-05T00:39:52.871Z,12.43
2018-12-05T00:42:22.663Z,10.60
2018-12-05T00:44:53.490Z,11.10
2018-12-05T00:47:23.210Z,11.00
2018-12-05T00:49:52.890Z,8.77
2018-12-05T00:52:22.590Z,14.40
2018-12-05T00:54:52.378Z,12.63
2018-12-05T00:57:22.227Z,10.47
2018-12-05T00:59:51.927Z,13.00
2018-12-05T01:02:21.793Z,12.37
2018-12-05T01:04:51.474Z,8.30
2018-12-05T01:07:21.267Z,11.77
2018-12-05T01:09:51.071Z,11.33
2018-12-05T01:12:20.790Z,13.77
2018-12-05T01:14:50.499Z,14.73
2018-12-05T01:17:21.098Z,14.30
2018-12-05T01:19:50.910Z,11.77
2018-12-05T01:22:21.596Z,11.23
2018-12-05T01:24:51.484Z,13.37
2018-12-05T01:27:21.938Z,10.57
2018-12-05T01:29:51.817Z,12.67
2018-12-05T01:32:21.671Z,9.93
2018-12-05T01:34:51.503Z,15.47
2018-12-05T01:37:21.825Z,12.60
2018-12-05T01:39:51.730Z,11.27
2018-12-05T01:42:21.633Z,12.23
2018-12-05T01:44:56.084Z,10.37
2018-12-05T01:47:25.986Z,17.90
2018-12-05T01:49:55.863Z,9.30
2018-12-05T01:52:25.610Z,10.83
2018-12-05T01:54:55.362Z,16.40
2018-12-05T01:57:25.146Z,11.57
2018-12-05T01:59:54.946Z,15.00
2018-12-05T02:02:24.710Z,18.27
2018-12-05T02:04:54.458Z,12.70
2018-12-05T02:07:24.174Z,12.17
2018-12-05T02:09:54.206Z,11.20
2018-12-05T02:12:24.007Z,12.60
2018-12-05T02:14:53.814Z,11.27
2018-12-05T02:17:23.727Z,13.87
2018-12-05T02:19:53.451Z,12.27
2018-12-05T02:22:23.167Z,9.10
2018-12-05T02:24:53.514Z,9.13
2018-12-05T02:27:23.346Z,12.37
2018-12-05T02:29:58.225Z,8.70
2018-12-05T02:32:28.000Z,11.90
2018-12-05T02:34:57.962Z,12.97
2018-12-05T02:37:27.705Z,11.60
2018-12-05T02:39:57.568Z,9.63
2018-12-05T02:42:27.288Z,11.73
2018-12-05T02:44:57.523Z,12.77
2018-12-05T02:47:27.498Z,13.83
2018-12-05T02:49:57.337Z,11.60
2018-12-05T02:52:27.358Z,17.90
2018-12-05T02:54:57.158Z,12.07
2018-12-05T02:57:26.866Z,10.63
2018-12-05T02:59:56.791Z,9.30
2018-12-05T03:02:26.542Z,8.30
2018-12-05T03:04:56.396Z,12.10
2018-12-05T03:07:26.118Z,9.27
2018-12-05T03:09:56.047Z,11.13
2018-12-05T03:12:25.915Z,8.10
2018-12-05T03:14:55.617Z,9.63
2018-12-05T03:17:25.669Z,12.17
2018-12-05T03:19:55.539Z,12.73
2018-12-05T03:22:25.256Z,8.73
2018-12-05T03:24:55.027Z,9.73
2018-12-05T03:27:24.833Z,14.73
2018-12-05T03:29:54.743Z,8.73
2018-12-05T03:32:26.409Z,10.40
2018-12-05T03:34:56.398Z,8.67
2018-12-05T03:37:26.234Z,10.50
2018-12-05T03:39:56.060Z,10.17
2018-12-05T03:42:25.876Z,16.20
2018-12-05T03:44:55.691Z,14.07
2018-12-05T03:47:25.419Z,8.83
2018-12-05T03:50:00.601Z,14.57
2018-12-05T03:52:31.259Z,9.90
2018-12-05T03:55:03.074Z,13.67
2018-12-05T03:57:33.094Z,9.90
2018-12-05T04:00:03.026Z,9.80
2018-12-05T04:02:33.292Z,11.67
2018-12-05T04:05:03.250Z,12.43
2018-12-05T04:07:33.220Z,13.77
2018-12-05T04:10:03.820Z,13.87
2018-12-05T04:12:40.441Z,11.20
2018-12-05T04:15:06.173Z,10.17
2018-12-05T04:17:35.854Z,13.00
2018-12-05T04:20:05.678Z,13.60
2018-12-05T04:22:35.523Z,11.13
2018-12-05T04:25:05.468Z,9.50
2018-12-05T04:27:35.466Z,13.07
2018-12-05T04:30:05.728Z,12.93
2018-12-05T04:32:37.539Z,14.07
2018-12-05T04:35:07.443Z,13.37
2018-12-05T04:37:37.213Z,9.43
2018-12-05T04:40:07.264Z,11.50
2018-12-05T04:42:37.006Z,11.30
2018-12-05T04:45:06.819Z,8.03
2018-12-05T04:47:36.651Z,9.63
2018-12-05T04:50:06.808Z,12.50
2018-12-05T04:52:36.713Z,10.47
2018-12-05T04:55:06.621Z,7.77
2018-12-05T04:57:36.607Z,10.57
2018-12-05T05:00:07.589Z,8.97
2018-12-05T05:02:37.402Z,12.20
2018-12-05T05:05:07.198Z,10.23
2018-12-05T05:07:37.127Z,8.10
2018-12-05T05:10:07.030Z,14.03
2018-12-05T05:12:36.814Z,9.50
2018-12-05T05:15:06.710Z,14.67
2018-12-05T05:17:36.475Z,14.70
2018-12-05T05:20:06.457Z,13.87
2018-12-05T05:22:36.311Z,9.87
2018-12-05T05:25:06.014Z,15.87
2018-12-05T05:27:35.771Z,15.97
2018-12-05T05:30:06.045Z,14.67
2018-12-05T05:32:35.980Z,11.90
2018-12-05T05:35:05.815Z,9.63
2018-12-05T05:37:35.730Z,14.10
2018-12-05T05:40:05.740Z,14.23
2018-12-05T05:42:35.602Z,15.33
2018-12-05T05:45:05.475Z,11.17
2018-12-05T05:47:35.234Z,9.47
2018-12-05T05:50:05.264Z,9.83
2018-12-05T05:52:34.958Z,10.37
2018-12-05T05:55:05.210Z,9.20
2018-12-05T05:57:34.978Z,11.47
2018-12-05T06:00:06.119Z,17.13
2018-12-05T06:02:37.034Z,10.60
2018-12-05T06:05:07.031Z,10.37
2018-12-05T06:07:36.805Z,9.53
2018-12-05T06:10:07.479Z,10.07
2018-12-05T06:12:37.339Z,8.67
2018-12-05T06:15:08.655Z,8.53
2018-12-05T06:17:38.639Z,10.17
2018-12-05T06:20:08.381Z,11.47
2018-12-05T06:22:38.099Z,10.67
2018-12-05T06:25:08.071Z,10.27
2018-12-05T06:27:38.174Z,9.97
2018-12-05T06:30:08.206Z,10.93
2018-12-05T06:32:37.914Z,11.67
2018-12-05T06:35:07.878Z,9.90
2018-12-05T06:37:37.958Z,10.07
2018-12-05T06:40:07.974Z,9.10
2018-12-05T06:42:37.833Z,12.50
2018-12-05T06:45:07.762Z,16.10
2018-12-05T06:47:37.558Z,16.37
2018-12-05T06:50:08.175Z,13.03
2018-12-05T06:52:37.974Z,16.13
2018-12-05T06:55:07.817Z,18.73
2018-12-05T06:57:37.572Z,22.17
2018-12-05T07:00:08.328Z,19.57
2018-12-05T07:02:39.025Z,21.67
2018-12-05T07:05:08.819Z,17.37
2018-12-05T07:07:38.556Z,19.87
2018-12-05T07:10:08.542Z,16.70
2018-12-05T07:12:38.294Z,18.77
2018-12-05T07:15:08.392Z,21.87
2018-12-05T07:17:38.165Z,18.67
2018-12-05T07:20:09.120Z,20.47
2018-12-05T07:22:38.826Z,15.10
2018-12-05T07:25:08.760Z,16.00
2018-12-05T07:27:38.514Z,17.73
2018-12-05T07:30:08.439Z,17.90
2018-12-05T07:32:38.194Z,14.87
2018-12-05T07:35:09.030Z,19.13
2018-12-05T07:37:38.816Z,21.33
2018-12-05T07:40:08.550Z,23.80
2018-12-05T07:42:38.342Z,20.33
2018-12-05T07:45:08.199Z,18.80
2018-12-05T07:47:38.022Z,23.73
2018-12-05T07:50:07.948Z,17.67
2018-12-05T07:52:37.854Z,20.33
2018-12-05T07:55:07.846Z,19.40
2018-12-05T07:57:37.925Z,21.97
2018-12-05T08:00:08.049Z,22.03
2018-12-05T08:02:37.826Z,23.17
2018-12-05T08:05:07.675Z,20.50
2018-12-05T08:07:37.488Z,15.40
2018-12-05T08:10:07.287Z,20.20
2018-12-05T08:12:37.041Z,21.90
2018-12-05T08:15:08.158Z,18.53
2018-12-05T08:17:37.902Z,21.43
2018-12-05T08:20:07.864Z,14.93
2018-12-05T08:22:37.702Z,16.00
2018-12-05T08:25:07.482Z,16.97
2018-12-05T08:27:37.295Z,15.10
2018-12-05T08:30:08.020Z,16.70
2018-12-05T08:32:37.721Z,20.50
2018-12-05T08:35:07.606Z,17.53
2018-12-05T08:37:37.440Z,16.63
2018-12-05T08:40:07.178Z,19.20
2018-12-05T08:42:36.960Z,16.23
2018-12-05T08:45:06.943Z,15.70
2018-12-05T08:47:36.683Z,22.17
2018-12-05T08:50:06.626Z,15.73
2018-12-05T08:52:36.452Z,17.10
2018-12-05T08:55:06.427Z,16.23
2018-12-05T08:57:36.177Z,16.10
2018-12-05T09:00:07.394Z,17.10
2018-12-05T09:02:37.522Z,18.40
2018-12-05T09:05:07.851Z,15.57
2018-12-05T09:07:37.672Z,14.73
2018-12-05T09:10:07.561Z,16.57
2018-12-05T09:12:37.360Z,17.20
2018-12-05T09:15:07.577Z,19.23
2018-12-05T09:17:37.407Z,16.07
2018-12-05T09:20:08.143Z,16.50
2018-12-05T09:22:41.168Z,15.73
2018-12-05T09:25:09.802Z,15.13
2018-12-05T09:27:39.756Z,24.93
2018-12-05T09:30:09.819Z,17.00
2018-12-05T09:32:39.623Z,17.17
2018-12-05T09:35:09.982Z,17.73
2018-12-05T09:37:40.002Z,18.47
2018-12-05T09:40:09.910Z,15.23
2018-12-05T09:42:39.764Z,15.57
2018-12-05T09:45:12.630Z,17.17
2018-12-05T09:47:42.535Z,30.63
2018-12-05T09:50:12.238Z,57.60
2018-12-05T09:52:42.187Z,47.30
2018-12-05T09:55:12.144Z,56.80
2018-12-05T09:57:42.102Z,47.97
2018-12-05T10:00:11.903Z,28.17
2018-12-05T10:02:42.075Z,24.73
2018-12-05T10:05:11.958Z,25.03
2018-12-05T10:07:42.598Z,21.00
2018-12-05T10:10:12.410Z,17.90
2018-12-05T10:12:42.159Z,21.63
2018-12-05T10:15:12.054Z,17.63
2018-12-05T10:17:42.815Z,21.30
2018-12-05T10:20:12.618Z,19.07
2018-12-05T10:22:42.475Z,18.33
2018-12-05T10:25:12.193Z,17.10
2018-12-05T10:27:43.329Z,19.93
2018-12-05T10:30:13.406Z,19.20
2018-12-05T10:32:43.213Z,20.50
2018-12-05T10:35:13.986Z,17.67
2018-12-05T10:37:44.278Z,16.97
2018-12-05T10:40:15.089Z,22.97
2018-12-05T10:42:45.127Z,20.13
2018-12-05T10:45:14.949Z,16.97
2018-12-05T10:47:45.043Z,19.07
2018-12-05T10:50:14.839Z,18.37
2018-12-05T10:52:44.652Z,20.13
2018-12-05T10:55:14.538Z,22.70
2018-12-05T10:57:44.483Z,25.47
2018-12-05T11:00:22.523Z,24.33
2018-12-05T11:02:57.775Z,24.20
2018-12-05T11:05:32.998Z,18.57
2018-12-05T11:08:08.338Z,16.23
2018-12-05T11:10:44.718Z,21.67
2018-12-05T11:13:19.974Z,20.03
2018-12-05T11:15:55.242Z,18.93
2018-12-05T11:18:30.284Z,18.37
2018-12-05T11:21:05.363Z,16.70
2018-12-05T11:23:41.645Z,17.50
2018-12-05T11:26:15.323Z,17.93
2018-12-05T11:28:45.166Z,18.50
2018-12-05T11:31:15.038Z,18.17
2018-12-05T11:33:45.249Z,16.40
2018-12-05T11:36:15.252Z,21.00
2018-12-05T11:38:45.014Z,19.73
2018-12-05T11:41:14.906Z,16.37
2018-12-05T11:43:44.725Z,16.57
2018-12-05T11:46:14.498Z,20.17
2018-12-05T11:48:44.205Z,18.83
2018-12-05T11:51:14.043Z,22.13
2018-12-05T11:53:43.799Z,19.07
2018-12-05T11:56:13.664Z,15.63
2018-12-05T11:58:43.582Z,18.77
2018-12-05T12:01:13.392Z,15.20
2018-12-05T12:03:43.310Z,16.83
2018-12-05T12:06:15.220Z,17.60
2018-12-05T12:08:45.198Z,18.33
2018-12-05T12:11:15.006Z,15.63
2018-12-05T12:13:44.978Z,18.90
2018-12-05T12:16:14.826Z,17.60
2018-12-05T12:18:45.570Z,16.70
2018-12-05T12:21:15.306Z,23.50
2018-12-05T12:23:45.175Z,20.80
2018-12-05T12:26:14.895Z,19.63
2018-12-05T12:28:44.736Z,20.10
2018-12-05T12:31:14.438Z,22.10
2018-12-05T12:33:44.160Z,23.53
2018-12-05T12:36:13.950Z,23.47
2018-12-05T12:38:43.659Z,19.40
2018-12-05T12:41:13.467Z,20.33
2018-12-05T12:43:44.275Z,15.23
2018-12-05T12:46:14.022Z,21.83
2018-12-05T12:48:43.974Z,21.67
2018-12-05T12:51:13.783Z,21.10
2018-12-05T12:53:44.536Z,15.63
2018-12-05T12:56:14.771Z,17.90
2018-12-05T12:58:44.588Z,19.33
2018-12-05T13:01:14.394Z,21.93
2018-12-05T13:03:44.351Z,20.03
2018-12-05T13:06:14.047Z,19.30
2018-12-05T13:08:44.047Z,25.03
2018-12-05T13:11:13.871Z,25.20
2018-12-05T13:13:43.575Z,18.53
2018-12-05T13:16:13.278Z,19.83
2018-12-05T13:18:43.043Z,22.07
2018-12-05T13:21:12.847Z,17.90
2018-12-05T13:23:42.658Z,20.37
2018-12-05T13:26:12.458Z,20.50
2018-12-05T13:28:42.372Z,19.30
2018-12-05T13:31:12.114Z,17.43
2018-12-05T13:33:41.883Z,20.80
2018-12-05T13:36:11.946Z,18.77
2018-12-05T13:38:41.658Z,19.97
2018-12-05T13:41:11.502Z,20.13
2018-12-05T13:43:41.259Z,18.27
2018-12-05T13:46:10.951Z,20.60
2018-12-05T13:48:40.785Z,23.33
2018-12-05T13:51:10.799Z,23.43
2018-12-05T13:53:41.807Z,23.17
2018-12-05T13:56:11.556Z,18.80
2018-12-05T13:58:41.421Z,22.60
2018-12-05T14:01:11.289Z,24.03
2018-12-05T14:03:41.208Z,23.17
2018-12-05T14:06:11.010Z,26.93
2018-12-05T14:08:41.454Z,24.43
2018-12-05T14:11:11.154Z,25.53
2018-12-05T14:13:40.882Z,23.20
2018-12-05T14:16:10.754Z,24.00
2018-12-05T14:18:40.655Z,24.67
2018-12-05T14:21:10.347Z,23.30
2018-12-05T14:23:40.050Z,18.73
2018-12-05T14:26:09.819Z,31.27
2018-12-05T14:28:39.771Z,32.30
2018-12-05T14:31:09.526Z,26.60
2018-12-05T14:33:39.478Z,42.20
2018-12-05T14:36:09.175Z,58.07
2018-12-05T14:38:38.999Z,38.27
2018-12-05T14:41:08.802Z,49.50
2018-12-05T14:43:38.505Z,47.20
2018-12-05T14:46:08.419Z,39.03
2018-12-05T14:48:38.140Z,38.67
2018-12-05T14:51:07.854Z,25.47
2018-12-05T14:53:37.555Z,22.73
2018-12-05T14:56:07.275Z,30.40
2018-12-05T14:58:37.138Z,31.33
2018-12-05T15:01:07.115Z,24.50
2018-12-05T15:03:36.846Z,23.27
2018-12-05T15:06:06.646Z,21.10
2018-12-05T15:08:36.467Z,25.07
2018-12-05T15:11:06.402Z,23.77
2018-12-05T15:13:36.094Z,26.20
2018-12-05T15:16:06.095Z,29.37
2018-12-05T15:18:35.902Z,24.23
2018-12-05T15:21:05.655Z,25.07
2018-12-05T15:23:35.427Z,22.93
2018-12-05T15:26:05.142Z,21.43
2018-12-05T15:28:34.942Z,17.07
2018-12-05T15:31:04.854Z,17.87
2018-12-05T15:33:34.691Z,15.83
2018-12-05T15:36:04.455Z,13.20
2018-12-05T15:38:34.302Z,18.07
2018-12-05T15:41:04.258Z,14.97
2018-12-05T15:43:34.023Z,38.57
2018-12-05T15:46:03.961Z,21.33
2018-12-05T15:48:33.762Z,21.80
2018-12-05T15:51:04.718Z,14.37
2018-12-05T15:53:34.415Z,14.83
2018-12-05T15:56:04.355Z,14.90
2018-12-05T15:58:34.050Z,30.67
2018-12-05T16:01:03.917Z,75.47
2018-12-05T16:03:34.757Z,54.37
2018-12-05T16:06:04.709Z,62.67
2018-12-05T16:08:34.747Z,53.20
2018-12-05T16:11:04.998Z,62.43
2018-12-05T16:13:34.707Z,44.43
2018-12-05T16:16:04.495Z,39.23
2018-12-05T16:18:34.323Z,38.53
2018-12-05T16:21:04.154Z,75.20
2018-12-05T16:23:34.149Z,52.67
2018-12-05T16:26:10.552Z,32.70
2018-12-05T16:28:35.847Z,28.23
2018-12-05T16:31:05.566Z,28.23
2018-12-05T16:33:35.352Z,12.90
2018-12-05T16:36:05.295Z,20.60
2018-12-05T16:38:35.035Z,22.97
2018-12-05T16:41:04.969Z,25.10
2018-12-05T16:43:34.735Z,23.87
2018-12-05T16:46:04.616Z,21.80
2018-12-05T16:48:34.326Z,33.73
2018-12-05T16:51:04.142Z,62.47
2018-12-05T16:53:33.949Z,37.40
2018-12-05T16:56:03.766Z,51.30
2018-12-05T16:58:33.572Z,52.50
2018-12-05T17:01:03.393Z,38.57
2018-12-05T17:03:33.100Z,68.40
2018-12-05T17:06:03.610Z,63.03
2018-12-05T17:08:33.555Z,60.20
2018-12-05T17:11:03.395Z,42.30
2018-12-05T17:13:35.134Z,26.17
2018-12-05T17:16:04.915Z,27.87
2018-12-05T17:18:34.711Z,31.70
2018-12-05T17:21:04.521Z,49.37
2018-12-05T17:23:34.527Z,51.83
2018-12-05T17:26:04.524Z,31.13
2018-12-05T17:28:34.259Z,34.67
2018-12-05T17:31:04.067Z,42.00
2018-12-05T17:33:33.800Z,70.03
2018-12-05T17:36:03.839Z,56.83
2018-12-05T17:38:33.528Z,63.53
2018-12-05T17:41:03.391Z,24.37
2018-12-05T17:43:33.191Z,19.73
2018-12-05T17:46:03.229Z,22.20
2018-12-05T17:48:32.925Z,20.17
2018-12-05T17:51:02.818Z,25.57
2018-12-05T17:53:32.525Z,23.63
2018-12-05T17:56:02.283Z,20.87
2018-12-05T17:58:32.003Z,22.83
2018-12-05T18:01:01.835Z,24.60
2018-12-05T18:03:31.543Z,18.93
2018-12-05T18:06:01.543Z,18.57
2018-12-05T18:08:31.398Z,19.40
2018-12-05T18:11:01.288Z,16.30
2018-12-05T18:13:31.030Z,17.40
2018-12-05T18:16:00.723Z,15.30
2018-12-05T18:18:30.585Z,15.47
2018-12-05T18:21:00.481Z,15.03
2018-12-05T18:23:30.475Z,16.97
2018-12-05T18:26:00.320Z,18.23
2018-12-05T18:28:30.258Z,16.23
2018-12-05T18:31:00.048Z,14.77
2018-12-05T18:33:29.980Z,15.37
2018-12-05T18:35:59.899Z,16.57
2018-12-05T18:38:29.713Z,14.00
2018-12-05T18:40:59.590Z,15.77
2018-12-05T18:43:29.318Z,14.17
2018-12-05T18:45:59.375Z,15.80
2018-12-05T18:48:29.197Z,14.33
2018-12-05T18:50:58.961Z,15.87
2018-12-05T18:53:28.895Z,15.77
2018-12-05T18:55:58.707Z,17.90
2018-12-05T18:58:28.479Z,15.77
2018-12-05T19:00:58.415Z,17.13
2018-12-05T19:03:28.421Z,17.57
2018-12-05T19:05:58.345Z,17.70
2018-12-05T19:08:34.280Z,19.70
2018-12-05T19:11:00.142Z,18.37
2018-12-05T19:13:29.931Z,18.17
2018-12-05T19:15:59.750Z,17.63
2018-12-05T19:18:29.540Z,16.33
2018-12-05T19:20:59.886Z,18.60
2018-12-05T19:23:29.779Z,16.00
2018-12-05T19:25:59.502Z,18.77
2018-12-05T19:28:29.222Z,17.97
2018-12-05T19:30:58.935Z,18.13
2018-12-05T19:33:28.657Z,19.73
2018-12-05T19:35:58.447Z,17.93
2018-12-05T19:38:28.354Z,18.93
2018-12-05T19:40:58.234Z,18.17
2018-12-05T19:43:28.034Z,18.00
2018-12-05T19:45:58.243Z,19.90
2018-12-05T19:48:28.050Z,19.63
2018-12-05T19:50:57.879Z,18.97
2018-12-05T19:53:27.586Z,16.57
2018-12-05T19:55:57.588Z,19.87
2018-12-05T19:58:27.476Z,20.30
2018-12-05T20:00:57.294Z,16.60
2018-12-05T20:03:26.998Z,18.57
2018-12-05T20:05:56.843Z,18.67
2018-12-05T20:08:26.534Z,15.73
2018-12-05T20:10:56.336Z,16.43
2018-12-05T20:13:26.014Z,16.50
2018-12-05T20:15:55.852Z,16.40
2018-12-05T20:18:25.665Z,14.57
2018-12-05T20:20:56.830Z,16.60
2018-12-05T20:23:26.538Z,17.50
2018-12-05T20:25:56.334Z,18.17
2018-12-05T20:28:26.063Z,18.80
2018-12-05T20:30:55.858Z,16.40
2018-12-05T20:33:25.618Z,17.87
2018-12-05T20:35:55.459Z,16.70
2018-12-05T20:38:25.251Z,18.37
2018-12-05T20:40:54.951Z,19.60
2018-12-05T20:43:24.770Z,17.87
2018-12-05T20:45:54.718Z,16.10
2018-12-05T20:48:24.426Z,17.17
2018-12-05T20:50:54.368Z,17.93
2018-12-05T20:53:24.149Z,17.37
2018-12-05T20:55:53.986Z,16.50
2018-12-05T20:58:23.734Z,17.87
2018-12-05T21:00:53.572Z,17.17
2018-12-05T21:03:23.578Z,15.27
2018-12-05T21:05:53.299Z,16.17
2018-12-05T21:08:23.070Z,18.60
2018-12-05T21:10:52.766Z,23.00
2018-12-05T21:13:22.474Z,20.57
2018-12-05T21:15:52.184Z,19.30
2018-12-05T21:18:21.918Z,20.70
2018-12-05T21:20:51.614Z,20.20
2018-12-05T21:23:21.327Z,17.87
2018-12-05T21:25:51.128Z,17.43
2018-12-05T21:28:20.874Z,16.57
2018-12-05T21:30:50.673Z,19.23
2018-12-05T21:33:20.452Z,19.20
2018-12-05T21:35:50.238Z,28.73
2018-12-05T21:38:20.015Z,25.83
2018-12-05T21:40:49.748Z,25.87
2018-12-05T21:43:19.642Z,23.07
2018-12-05T21:45:49.337Z,23.90
2018-12-05T21:48:19.058Z,19.03
2018-12-05T21:50:48.791Z,21.33
2018-12-05T21:53:18.503Z,17.87
2018-12-05T21:55:48.286Z,20.10
2018-12-05T21:58:18.096Z,22.97
2018-12-05T22:00:47.855Z,16.50
2018-12-05T22:03:17.560Z,16.33
2018-12-05T22:05:47.258Z,14.90
2018-12-05T22:08:17.065Z,15.17
2018-12-05T22:10:46.850Z,14.50
2018-12-05T22:13:16.558Z,15.53
2018-12-05T22:15:46.251Z,18.63
2018-12-05T22:18:15.967Z,16.53
2018-12-05T22:20:45.694Z,15.23
2018-12-05T22:23:15.578Z,16.50
2018-12-05T22:25:45.373Z,16.80
2018-12-05T22:28:15.099Z,12.40
2018-12-05T22:30:44.795Z,15.30
2018-12-05T22:33:14.584Z,14.80
2018-12-05T22:35:44.475Z,24.63
2018-12-05T22:38:14.217Z,22.00
2018-12-05T22:40:44.006Z,16.70
2018-12-05T22:43:13.706Z,17.07
2018-12-05T22:45:43.496Z,19.50
2018-12-05T22:48:13.247Z,17.57
2018-12-05T22:50:43.059Z,17.10
2018-12-05T22:53:12.772Z,16.50
2018-12-05T22:55:42.454Z,14.93
2018-12-05T22:58:12.268Z,14.10
2018-12-05T23:00:44.858Z,13.07
2018-12-05T23:03:16.509Z,15.50
2018-12-05T23:05:46.258Z,12.17
2018-12-05T23:08:15.971Z,12.60
2018-12-05T23:10:45.847Z,14.60
2018-12-05T23:13:15.632Z,16.37
2018-12-05T23:15:45.394Z,14.13
2018-12-05T23:18:15.242Z,19.37
2018-12-05T23:20:45.062Z,16.80
2018-12-05T23:23:14.818Z,15.10
2018-12-05T23:25:44.518Z,18.33
2018-12-05T23:28:14.262Z,16.53
2018-12-05T23:30:43.961Z,16.53
2018-12-05T23:33:13.703Z,17.10
2018-12-05T23:35:43.398Z,19.47
2018-12-05T23:38:13.207Z,16.00
2018-12-05T23:40:42.895Z,15.97
2018-12-05T23:43:13.602Z,13.93
2018-12-05T23:45:43.354Z,17.60
2018-12-05T23:48:13.114Z,15.87
2018-12-05T23:50:42.994Z,14.63
2018-12-05T23:53:12.714Z,15.20
2018-12-05T23:55:42.523Z,16.03
2018-12-05T23:58:12.231Z,14.20
